Thorne, North Dakota
Current Conditions -  °F | °C
As of 7:15 PM on Sunday 21 Dec 2014 (Local Time) from KRUG Reporting Station
Haze Haze  
Wind Chill: 18°   Ceiling: 200
Heat Index: 28°   Visibility: 2.5mi
Dew Point: 28°   Wind: 12mph
Humidity: 100%   Direction: 130°SE
Pressure: 29.47"   Gusts: NA
Location:  48.632°N, 99.9505°W
Report Text: KRUG 220115Z AUTO 13010KT 2 1/2SM BR OVC002 M02/M02 A2947 RMK AO2
Loading
Personal Weather Stations






























Interactive Weather Map New forecast layout! Learn more

10-Day Weather Forecast

Advertisements
Track Severe Weather on mobile